sensor_id;sensor_type;location;lat;lon;timestamp;P1;durP1;ratioP1;P2;durP2;ratioP2
37383;SDS011;23258;49.718;11.082;2023-06-26T00:01:26;4.45;;;4.05;;
37383;SDS011;23258;49.718;11.082;2023-06-26T00:03:58;4.88;;;4.15;;
37383;SDS011;23258;49.718;11.082;2023-06-26T00:06:28;4.60;;;4.10;;
37383;SDS011;23258;49.718;11.082;2023-06-26T00:08:58;4.18;;;3.70;;
37383;SDS011;23258;49.718;11.082;2023-06-26T00:11:28;4.13;;;3.60;;
37383;SDS011;23258;49.718;11.082;2023-06-26T00:14:00;6.30;;;4.22;;
37383;SDS011;23258;49.718;11.082;2023-06-26T00:16:32;4.57;;;4.03;;
37383;SDS011;23258;49.718;11.082;2023-06-26T00:19:02;5.07;;;4.57;;
37383;SDS011;23258;49.718;11.082;2023-06-26T00:21:31;4.85;;;4.45;;
37383;SDS011;23258;49.718;11.082;2023-06-26T00:24:01;4.25;;;3.90;;
37383;SDS011;23258;49.718;11.082;2023-06-26T00:26:30;4.55;;;4.15;;
37383;SDS011;23258;49.718;11.082;2023-06-26T00:29:00;4.80;;;4.40;;
37383;SDS011;23258;49.718;11.082;2023-06-26T00:31:32;6.68;;;4.75;;
37383;SDS011;23258;49.718;11.082;2023-06-26T00:34:02;4.22;;;3.80;;
37383;SDS011;23258;49.718;11.082;2023-06-26T00:36:32;4.63;;;4.22;;
37383;SDS011;23258;49.718;11.082;2023-06-26T00:39:03;5.13;;;4.60;;
37383;SDS011;23258;49.718;11.082;2023-06-26T00:41:34;5.50;;;4.15;;
37383;SDS011;23258;49.718;11.082;2023-06-26T00:44:04;6.85;;;4.38;;
37383;SDS011;23258;49.718;11.082;2023-06-26T00:46:36;4.53;;;4.18;;
37383;SDS011;23258;49.718;11.082;2023-06-26T00:49:06;5.28;;;4.25;;
37383;SDS011;23258;49.718;11.082;2023-06-26T00:51:36;4.65;;;4.25;;
37383;SDS011;23258;49.718;11.082;2023-06-26T00:54:06;4.95;;;4.45;;
37383;SDS011;23258;49.718;11.082;2023-06-26T00:56:35;5.38;;;4.47;;
37383;SDS011;23258;49.718;11.082;2023-06-26T00:59:06;4.32;;;3.92;;
37383;SDS011;23258;49.718;11.082;2023-06-26T01:01:38;4.80;;;4.40;;
37383;SDS011;23258;49.718;11.082;2023-06-26T01:04:09;4.25;;;3.92;;
37383;SDS011;23258;49.718;11.082;2023-06-26T01:06:45;5.28;;;4.78;;
37383;SDS011;23258;49.718;11.082;2023-06-26T01:09:16;4.30;;;3.90;;
37383;SDS011;23258;49.718;11.082;2023-06-26T01:11:49;4.38;;;3.97;;
37383;SDS011;23258;49.718;11.082;2023-06-26T01:14:20;5.25;;;4.32;;
37383;SDS011;23258;49.718;11.082;2023-06-26T01:16:53;4.53;;;4.18;;
37383;SDS011;23258;49.718;11.082;2023-06-26T01:19:24;5.55;;;4.32;;
37383;SDS011;23258;49.718;11.082;2023-06-26T01:21:56;3.72;;;3.42;;
37383;SDS011;23258;49.718;11.082;2023-06-26T01:24:32;5.13;;;4.60;;
37383;SDS011;23258;49.718;11.082;2023-06-26T01:27:06;4.35;;;3.97;;
37383;SDS011;23258;49.718;11.082;2023-06-26T01:29:36;4.90;;;4.50;;
37383;SDS011;23258;49.718;11.082;2023-06-26T01:32:07;5.38;;;4.35;;
37383;SDS011;23258;49.718;11.082;2023-06-26T01:34:37;4.45;;;4.07;;
37383;SDS011;23258;49.718;11.082;2023-06-26T01:37:07;4.38;;;3.85;;
37383;SDS011;23258;49.718;11.082;2023-06-26T01:39:36;4.93;;;4.53;;
37383;SDS011;23258;49.718;11.082;2023-06-26T01:42:09;4.90;;;4.50;;
37383;SDS011;23258;49.718;11.082;2023-06-26T01:44:40;4.90;;;4.40;;
37383;SDS011;23258;49.718;11.082;2023-06-26T01:47:12;4.45;;;4.05;;
37383;SDS011;23258;49.718;11.082;2023-06-26T01:49:46;4.95;;;4.45;;
37383;SDS011;23258;49.718;11.082;2023-06-26T01:52:19;4.32;;;3.92;;
37383;SDS011;23258;49.718;11.082;2023-06-26T01:54:52;4.07;;;3.72;;
37383;SDS011;23258;49.718;11.082;2023-06-26T01:57:28;5.25;;;4.75;;
37383;SDS011;23258;49.718;11.082;2023-06-26T01:59:59;4.93;;;4.28;;
37383;SDS011;23258;49.718;11.082;2023-06-26T02:02:40;4.97;;;4.57;;
37383;SDS011;23258;49.718;11.082;2023-06-26T02:05:12;4.97;;;4.57;;
37383;SDS011;23258;49.718;11.082;2023-06-26T02:07:42;5.45;;;4.95;;
37383;SDS011;23258;49.718;11.082;2023-06-26T02:10:12;5.25;;;4.75;;
37383;SDS011;23258;49.718;11.082;2023-06-26T02:12:44;5.47;;;4.95;;
37383;SDS011;23258;49.718;11.082;2023-06-26T02:15:14;4.90;;;4.38;;
37383;SDS011;23258;49.718;11.082;2023-06-26T02:17:44;4.95;;;4.55;;
37383;SDS011;23258;49.718;11.082;2023-06-26T02:20:15;5.07;;;4.57;;
37383;SDS011;23258;49.718;11.082;2023-06-26T02:22:44;4.85;;;4.38;;
37383;SDS011;23258;49.718;11.082;2023-06-26T02:25:14;5.93;;;5.32;;
37383;SDS011;23258;49.718;11.082;2023-06-26T02:27:46;4.43;;;4.03;;
37383;SDS011;23258;49.718;11.082;2023-06-26T02:30:18;6.28;;;5.68;;
37383;SDS011;23258;49.718;11.082;2023-06-26T02:32:48;5.40;;;4.82;;
37383;SDS011;23258;49.718;11.082;2023-06-26T02:35:18;4.53;;;4.13;;
37383;SDS011;23258;49.718;11.082;2023-06-26T02:37:48;5.03;;;4.53;;
37383;SDS011;23258;49.718;11.082;2023-06-26T02:40:18;4.35;;;3.92;;
37383;SDS011;23258;49.718;11.082;2023-06-26T02:42:50;4.68;;;4.28;;
37383;SDS011;23258;49.718;11.082;2023-06-26T02:45:20;5.10;;;4.20;;
37383;SDS011;23258;49.718;11.082;2023-06-26T02:47:50;4.55;;;4.15;;
37383;SDS011;23258;49.718;11.082;2023-06-26T02:50:20;5.00;;;4.50;;
37383;SDS011;23258;49.718;11.082;2023-06-26T02:53:19;4.60;;;4.20;;
37383;SDS011;23258;49.718;11.082;2023-06-26T02:55:49;5.10;;;4.60;;
37383;SDS011;23258;49.718;11.082;2023-06-26T02:58:21;5.30;;;4.80;;
37383;SDS011;23258;49.718;11.082;2023-06-26T03:00:51;5.03;;;4.53;;
37383;SDS011;23258;49.718;11.082;2023-06-26T03:03:21;5.70;;;4.38;;
37383;SDS011;23258;49.718;11.082;2023-06-26T03:05:51;4.95;;;4.53;;
37383;SDS011;23258;49.718;11.082;2023-06-26T03:08:21;4.53;;;4.13;;
37383;SDS011;23258;49.718;11.082;2023-06-26T03:10:51;5.20;;;4.72;;
37383;SDS011;23258;49.718;11.082;2023-06-26T03:13:23;4.65;;;4.13;;
37383;SDS011;23258;49.718;11.082;2023-06-26T03:15:53;4.90;;;4.45;;
37383;SDS011;23258;49.718;11.082;2023-06-26T03:18:23;4.75;;;4.20;;
37383;SDS011;23258;49.718;11.082;2023-06-26T03:20:52;5.28;;;4.18;;
37383;SDS011;23258;49.718;11.082;2023-06-26T03:23:24;4.95;;;4.43;;
37383;SDS011;23258;49.718;11.082;2023-06-26T03:25:53;5.28;;;4.78;;
37383;SDS011;23258;49.718;11.082;2023-06-26T03:28:32;5.88;;;4.50;;
37383;SDS011;23258;49.718;11.082;2023-06-26T03:31:01;5.05;;;4.43;;
37383;SDS011;23258;49.718;11.082;2023-06-26T03:33:31;4.70;;;4.32;;
37383;SDS011;23258;49.718;11.082;2023-06-26T03:36:01;5.05;;;4.55;;
37383;SDS011;23258;49.718;11.082;2023-06-26T03:38:31;4.55;;;4.15;;
37383;SDS011;23258;49.718;11.082;2023-06-26T03:41:00;5.68;;;5.18;;
37383;SDS011;23258;49.718;11.082;2023-06-26T03:43:33;6.93;;;4.93;;
37383;SDS011;23258;49.718;11.082;2023-06-26T03:46:13;5.65;;;5.05;;
37383;SDS011;23258;49.718;11.082;2023-06-26T03:48:43;5.90;;;5.03;;
37383;SDS011;23258;49.718;11.082;2023-06-26T03:51:13;5.45;;;4.95;;
37383;SDS011;23258;49.718;11.082;2023-06-26T03:53:43;6.55;;;5.80;;
37383;SDS011;23258;49.718;11.082;2023-06-26T03:56:13;5.35;;;4.85;;
37383;SDS011;23258;49.718;11.082;2023-06-26T03:58:45;5.35;;;4.82;;
37383;SDS011;23258;49.718;11.082;2023-06-26T04:01:15;5.72;;;5.18;;
37383;SDS011;23258;49.718;11.082;2023-06-26T04:03:48;7.55;;;5.35;;
37383;SDS011;23258;49.718;11.082;2023-06-26T04:06:18;5.55;;;5.00;;
37383;SDS011;23258;49.718;11.082;2023-06-26T04:08:48;10.32;;;5.03;;
37383;SDS011;23258;49.718;11.082;2023-06-26T04:11:18;5.15;;;4.70;;
37383;SDS011;23258;49.718;11.082;2023-06-26T04:13:50;6.65;;;5.13;;
37383;SDS011;23258;49.718;11.082;2023-06-26T04:16:20;6.10;;;5.50;;
37383;SDS011;23258;49.718;11.082;2023-06-26T04:18:52;6.90;;;5.38;;
37383;SDS011;23258;49.718;11.082;2023-06-26T04:21:23;5.40;;;4.90;;
37383;SDS011;23258;49.718;11.082;2023-06-26T04:23:53;7.38;;;5.28;;
37383;SDS011;23258;49.718;11.082;2023-06-26T04:26:23;5.95;;;5.35;;
37383;SDS011;23258;49.718;11.082;2023-06-26T04:28:57;5.88;;;5.25;;
37383;SDS011;23258;49.718;11.082;2023-06-26T04:31:26;7.15;;;6.45;;
37383;SDS011;23258;49.718;11.082;2023-06-26T04:33:56;8.23;;;6.03;;
37383;SDS011;23258;49.718;11.082;2023-06-26T04:36:26;5.68;;;5.10;;
37383;SDS011;23258;49.718;11.082;2023-06-26T04:38:56;5.43;;;4.85;;
37383;SDS011;23258;49.718;11.082;2023-06-26T04:41:26;5.80;;;5.20;;
37383;SDS011;23258;49.718;11.082;2023-06-26T04:43:58;5.32;;;4.82;;
37383;SDS011;23258;49.718;11.082;2023-06-26T04:46:28;4.93;;;4.53;;
37383;SDS011;23258;49.718;11.082;2023-06-26T04:48:58;5.72;;;5.22;;
37383;SDS011;23258;49.718;11.082;2023-06-26T04:51:30;5.45;;;4.85;;
37383;SDS011;23258;49.718;11.082;2023-06-26T04:54:00;7.60;;;5.18;;
37383;SDS011;23258;49.718;11.082;2023-06-26T04:56:29;5.28;;;4.80;;
37383;SDS011;23258;49.718;11.082;2023-06-26T04:59:02;5.32;;;4.82;;
37383;SDS011;23258;49.718;11.082;2023-06-26T05:01:32;6.03;;;5.20;;
37383;SDS011;23258;49.718;11.082;2023-06-26T05:04:06;5.07;;;4.57;;
37383;SDS011;23258;49.718;11.082;2023-06-26T05:06:35;9.32;;;4.65;;
37383;SDS011;23258;49.718;11.082;2023-06-26T05:09:05;6.75;;;4.30;;
37383;SDS011;23258;49.718;11.082;2023-06-26T05:11:35;5.45;;;4.95;;
37383;SDS011;23258;49.718;11.082;2023-06-26T05:14:07;5.63;;;5.10;;
37383;SDS011;23258;49.718;11.082;2023-06-26T05:16:37;4.93;;;4.53;;
37383;SDS011;23258;49.718;11.082;2023-06-26T05:19:07;7.00;;;5.50;;
37383;SDS011;23258;49.718;11.082;2023-06-26T05:21:37;5.22;;;4.72;;
37383;SDS011;23258;49.718;11.082;2023-06-26T05:24:07;5.80;;;4.75;;
37383;SDS011;23258;49.718;11.082;2023-06-26T05:26:38;5.53;;;4.82;;
37383;SDS011;23258;49.718;11.082;2023-06-26T05:29:11;4.75;;;4.32;;
37383;SDS011;23258;49.718;11.082;2023-06-26T05:31:41;5.40;;;4.90;;
37383;SDS011;23258;49.718;11.082;2023-06-26T05:34:11;5.38;;;4.82;;
37383;SDS011;23258;49.718;11.082;2023-06-26T05:36:42;6.57;;;4.60;;
37383;SDS011;23258;49.718;11.082;2023-06-26T05:39:13;5.15;;;4.65;;
37383;SDS011;23258;49.718;11.082;2023-06-26T05:41:43;5.68;;;4.68;;
37383;SDS011;23258;49.718;11.082;2023-06-26T05:44:15;6.75;;;5.07;;
37383;SDS011;23258;49.718;11.082;2023-06-26T05:46:45;5.30;;;4.80;;
37383;SDS011;23258;49.718;11.082;2023-06-26T05:49:15;5.47;;;4.80;;
37383;SDS011;23258;49.718;11.082;2023-06-26T05:51:45;5.38;;;4.88;;
37383;SDS011;23258;49.718;11.082;2023-06-26T05:54:15;4.95;;;4.45;;
37383;SDS011;23258;49.718;11.082;2023-06-26T05:56:45;5.88;;;4.82;;
37383;SDS011;23258;49.718;11.082;2023-06-26T05:59:18;5.72;;;4.32;;
37383;SDS011;23258;49.718;11.082;2023-06-26T06:01:48;5.13;;;4.50;;
37383;SDS011;23258;49.718;11.082;2023-06-26T06:04:18;5.15;;;4.63;;
37383;SDS011;23258;49.718;11.082;2023-06-26T06:06:47;5.57;;;4.63;;
37383;SDS011;23258;49.718;11.082;2023-06-26T06:09:17;7.00;;;4.53;;
37383;SDS011;23258;49.718;11.082;2023-06-26T06:11:47;4.75;;;4.35;;
37383;SDS011;23258;49.718;11.082;2023-06-26T06:14:19;5.22;;;3.78;;
37383;SDS011;23258;49.718;11.082;2023-06-26T06:16:49;4.85;;;4.30;;
37383;SDS011;23258;49.718;11.082;2023-06-26T06:19:19;4.57;;;4.18;;
37383;SDS011;23258;49.718;11.082;2023-06-26T06:21:49;3.78;;;3.45;;
37383;SDS011;23258;49.718;11.082;2023-06-26T06:24:19;4.25;;;3.80;;
37383;SDS011;23258;49.718;11.082;2023-06-26T06:26:49;4.10;;;3.80;;
37383;SDS011;23258;49.718;11.082;2023-06-26T06:29:21;3.97;;;3.50;;
37383;SDS011;23258;49.718;11.082;2023-06-26T06:31:51;5.43;;;4.10;;
37383;SDS011;23258;49.718;11.082;2023-06-26T06:34:21;6.10;;;4.15;;
37383;SDS011;23258;49.718;11.082;2023-06-26T06:36:50;3.97;;;3.58;;
37383;SDS011;23258;49.718;11.082;2023-06-26T06:39:20;5.30;;;3.60;;
37383;SDS011;23258;49.718;11.082;2023-06-26T06:41:50;4.80;;;3.80;;
37383;SDS011;23258;49.718;11.082;2023-06-26T06:44:23;9.23;;;4.03;;
37383;SDS011;23258;49.718;11.082;2023-06-26T06:46:52;4.60;;;4.20;;
37383;SDS011;23258;49.718;11.082;2023-06-26T06:49:22;4.25;;;3.95;;
37383;SDS011;23258;49.718;11.082;2023-06-26T06:51:52;4.43;;;3.92;;
37383;SDS011;23258;49.718;11.082;2023-06-26T06:54:22;4.72;;;4.25;;
37383;SDS011;23258;49.718;11.082;2023-06-26T06:56:54;5.10;;;4.30;;
37383;SDS011;23258;49.718;11.082;2023-06-26T06:59:27;5.10;;;4.65;;
37383;SDS011;23258;49.718;11.082;2023-06-26T07:01:56;3.67;;;3.38;;
37383;SDS011;23258;49.718;11.082;2023-06-26T07:04:26;3.78;;;3.47;;
37383;SDS011;23258;49.718;11.082;2023-06-26T07:06:56;4.70;;;3.70;;
37383;SDS011;23258;49.718;11.082;2023-06-26T07:09:26;4.55;;;4.15;;
37383;SDS011;23258;49.718;11.082;2023-06-26T07:11:56;5.15;;;4.65;;
37383;SDS011;23258;49.718;11.082;2023-06-26T07:14:28;4.10;;;3.70;;
37383;SDS011;23258;49.718;11.082;2023-06-26T07:16:58;4.63;;;3.75;;
37383;SDS011;23258;49.718;11.082;2023-06-26T07:19:28;4.82;;;4.05;;
37383;SDS011;23258;49.718;11.082;2023-06-26T07:21:57;4.97;;;3.72;;
37383;SDS011;23258;49.718;11.082;2023-06-26T07:24:27;5.13;;;4.45;;
37383;SDS011;23258;49.718;11.082;2023-06-26T07:26:57;4.35;;;3.95;;
37383;SDS011;23258;49.718;11.082;2023-06-26T07:29:30;4.50;;;4.10;;
37383;SDS011;23258;49.718;11.082;2023-06-26T07:32:00;4.05;;;3.75;;
37383;SDS011;23258;49.718;11.082;2023-06-26T07:34:29;5.03;;;4.63;;
37383;SDS011;23258;49.718;11.082;2023-06-26T07:36:59;5.18;;;4.00;;
37383;SDS011;23258;49.718;11.082;2023-06-26T07:39:29;4.82;;;4.30;;
37383;SDS011;23258;49.718;11.082;2023-06-26T07:41:59;4.63;;;4.22;;
37383;SDS011;23258;49.718;11.082;2023-06-26T07:44:32;4.10;;;3.70;;
37383;SDS011;23258;49.718;11.082;2023-06-26T07:47:02;5.10;;;4.60;;
37383;SDS011;23258;49.718;11.082;2023-06-26T07:49:32;6.25;;;4.65;;
37383;SDS011;23258;49.718;11.082;2023-06-26T07:52:03;5.30;;;4.78;;
37383;SDS011;23258;49.718;11.082;2023-06-26T07:54:33;4.57;;;4.03;;
37383;SDS011;23258;49.718;11.082;2023-06-26T07:57:03;4.50;;;4.10;;
37383;SDS011;23258;49.718;11.082;2023-06-26T07:59:36;5.15;;;4.40;;
37383;SDS011;23258;49.718;11.082;2023-06-26T08:02:06;4.68;;;4.20;;
37383;SDS011;23258;49.718;11.082;2023-06-26T08:04:36;5.88;;;4.40;;
37383;SDS011;23258;49.718;11.082;2023-06-26T08:07:06;4.40;;;4.00;;
37383;SDS011;23258;49.718;11.082;2023-06-26T08:09:36;4.53;;;3.78;;
37383;SDS011;23258;49.718;11.082;2023-06-26T08:12:06;6.85;;;4.40;;
37383;SDS011;23258;49.718;11.082;2023-06-26T08:14:41;5.35;;;4.40;;
37383;SDS011;23258;49.718;11.082;2023-06-26T08:17:11;5.03;;;4.55;;
37383;SDS011;23258;49.718;11.082;2023-06-26T08:19:41;4.88;;;4.38;;
37383;SDS011;23258;49.718;11.082;2023-06-26T08:22:10;5.82;;;5.00;;
37383;SDS011;23258;49.718;11.082;2023-06-26T08:24:40;4.38;;;3.90;;
37383;SDS011;23258;49.718;11.082;2023-06-26T08:27:10;4.35;;;3.97;;
37383;SDS011;23258;49.718;11.082;2023-06-26T08:29:42;4.85;;;4.45;;
37383;SDS011;23258;49.718;11.082;2023-06-26T08:32:12;5.00;;;4.45;;
37383;SDS011;23258;49.718;11.082;2023-06-26T08:34:42;5.18;;;4.68;;
37383;SDS011;23258;49.718;11.082;2023-06-26T08:37:14;5.38;;;4.25;;
37383;SDS011;23258;49.718;11.082;2023-06-26T08:39:44;7.78;;;4.68;;
37383;SDS011;23258;49.718;11.082;2023-06-26T08:42:14;5.40;;;4.57;;
37383;SDS011;23258;49.718;11.082;2023-06-26T08:44:46;4.20;;;3.88;;
37383;SDS011;23258;49.718;11.082;2023-06-26T08:47:27;6.78;;;4.80;;
37383;SDS011;23258;49.718;11.082;2023-06-26T08:50:01;5.05;;;4.53;;
37383;SDS011;23258;49.718;11.082;2023-06-26T08:52:33;6.32;;;4.95;;
37383;SDS011;23258;49.718;11.082;2023-06-26T08:55:06;4.65;;;4.20;;
37383;SDS011;23258;49.718;11.082;2023-06-26T08:57:38;4.82;;;4.32;;
37383;SDS011;23258;49.718;11.082;2023-06-26T09:00:12;6.65;;;5.50;;
37383;SDS011;23258;49.718;11.082;2023-06-26T09:02:44;5.55;;;4.63;;
37383;SDS011;23258;49.718;11.082;2023-06-26T09:05:14;4.65;;;4.20;;
37383;SDS011;23258;49.718;11.082;2023-06-26T09:07:44;5.65;;;5.05;;
37383;SDS011;23258;49.718;11.082;2023-06-26T09:10:14;5.00;;;4.50;;
37383;SDS011;23258;49.718;11.082;2023-06-26T09:12:45;5.30;;;4.80;;
37383;SDS011;23258;49.718;11.082;2023-06-26T09:15:18;4.70;;;4.28;;
37383;SDS011;23258;49.718;11.082;2023-06-26T09:17:48;5.82;;;4.80;;
37383;SDS011;23258;49.718;11.082;2023-06-26T09:20:18;4.85;;;4.45;;
37383;SDS011;23258;49.718;11.082;2023-06-26T09:22:48;5.82;;;5.22;;
37383;SDS011;23258;49.718;11.082;2023-06-26T09:25:17;4.68;;;4.28;;
37383;SDS011;23258;49.718;11.082;2023-06-26T09:27:48;5.35;;;4.55;;
37383;SDS011;23258;49.718;11.082;2023-06-26T09:30:21;5.55;;;4.78;;
37383;SDS011;23258;49.718;11.082;2023-06-26T09:32:50;5.45;;;4.93;;
37383;SDS011;23258;49.718;11.082;2023-06-26T09:35:21;5.05;;;4.57;;
37383;SDS011;23258;49.718;11.082;2023-06-26T09:37:51;5.95;;;4.55;;
37383;SDS011;23258;49.718;11.082;2023-06-26T09:40:21;5.18;;;4.60;;
37383;SDS011;23258;49.718;11.082;2023-06-26T09:42:51;5.82;;;4.78;;
37383;SDS011;23258;49.718;11.082;2023-06-26T09:45:25;4.80;;;4.32;;
37383;SDS011;23258;49.718;11.082;2023-06-26T09:47:55;5.50;;;4.93;;
37383;SDS011;23258;49.718;11.082;2023-06-26T09:50:30;6.18;;;4.50;;
37383;SDS011;23258;49.718;11.082;2023-06-26T09:53:07;4.57;;;4.18;;
37383;SDS011;23258;49.718;11.082;2023-06-26T09:55:36;4.70;;;4.22;;
37383;SDS011;23258;49.718;11.082;2023-06-26T09:58:07;5.10;;;4.60;;
37383;SDS011;23258;49.718;11.082;2023-06-26T10:00:43;4.70;;;4.20;;
37383;SDS011;23258;49.718;11.082;2023-06-26T10:03:13;5.57;;;4.67;;
37383;SDS011;23258;49.718;11.082;2023-06-26T10:05:44;5.03;;;4.53;;
37383;SDS011;23258;49.718;11.082;2023-06-26T10:08:14;5.25;;;4.75;;
37383;SDS011;23258;49.718;11.082;2023-06-26T10:10:44;8.80;;;4.60;;
37383;SDS011;23258;49.718;11.082;2023-06-26T10:13:18;6.75;;;4.97;;
37383;SDS011;23258;49.718;11.082;2023-06-26T10:15:53;7.18;;;5.20;;
37383;SDS011;23258;49.718;11.082;2023-06-26T10:18:23;5.13;;;4.40;;
37383;SDS011;23258;49.718;11.082;2023-06-26T10:20:55;5.30;;;4.80;;
37383;SDS011;23258;49.718;11.082;2023-06-26T10:23:25;5.18;;;4.68;;
37383;SDS011;23258;49.718;11.082;2023-06-26T10:25:57;4.68;;;4.28;;
37383;SDS011;23258;49.718;11.082;2023-06-26T10:28:30;4.50;;;4.07;;
37383;SDS011;23258;49.718;11.082;2023-06-26T10:31:03;5.05;;;4.55;;
37383;SDS011;23258;49.718;11.082;2023-06-26T10:33:35;5.38;;;4.55;;
37383;SDS011;23258;49.718;11.082;2023-06-26T10:36:13;4.97;;;4.50;;
37383;SDS011;23258;49.718;11.082;2023-06-26T10:38:50;4.75;;;4.35;;
37383;SDS011;23258;49.718;11.082;2023-06-26T10:41:20;4.10;;;3.72;;
37383;SDS011;23258;49.718;11.082;2023-06-26T10:43:51;5.55;;;4.68;;
37383;SDS011;23258;49.718;11.082;2023-06-26T10:46:24;5.65;;;4.20;;
37383;SDS011;23258;49.718;11.082;2023-06-26T10:48:56;4.72;;;4.32;;
37383;SDS011;23258;49.718;11.082;2023-06-26T10:51:27;4.15;;;3.47;;
37383;SDS011;23258;49.718;11.082;2023-06-26T10:53:57;4.57;;;4.15;;
37383;SDS011;23258;49.718;11.082;2023-06-26T10:59:15;5.13;;;4.63;;
37383;SDS011;23258;49.718;11.082;2023-06-26T11:01:54;4.03;;;3.72;;
37383;SDS011;23258;49.718;11.082;2023-06-26T11:07:14;3.92;;;3.60;;
37383;SDS011;23258;49.718;11.082;2023-06-26T11:09:54;4.90;;;4.45;;
37383;SDS011;23258;49.718;11.082;2023-06-26T11:12:34;5.10;;;4.38;;
37383;SDS011;23258;49.718;11.082;2023-06-26T11:15:07;6.20;;;4.07;;
37383;SDS011;23258;49.718;11.082;2023-06-26T11:17:40;5.22;;;4.65;;
37383;SDS011;23258;49.718;11.082;2023-06-26T11:20:11;8.57;;;4.95;;
37383;SDS011;23258;49.718;11.082;2023-06-26T11:22:42;5.40;;;4.63;;
37383;SDS011;23258;49.718;11.082;2023-06-26T11:25:12;4.95;;;4.50;;
37383;SDS011;23258;49.718;11.082;2023-06-26T11:27:42;6.78;;;4.78;;
37383;SDS011;23258;49.718;11.082;2023-06-26T11:30:23;4.47;;;4.07;;
37383;SDS011;23258;49.718;11.082;2023-06-26T11:33:01;4.45;;;3.80;;
37383;SDS011;23258;49.718;11.082;2023-06-26T11:35:31;3.97;;;3.58;;
37383;SDS011;23258;49.718;11.082;2023-06-26T11:38:02;4.18;;;3.72;;
37383;SDS011;23258;49.718;11.082;2023-06-26T11:40:33;4.47;;;4.10;;
37383;SDS011;23258;49.718;11.082;2023-06-26T11:43:04;4.45;;;4.05;;
37383;SDS011;23258;49.718;11.082;2023-06-26T11:45:34;4.10;;;3.40;;
37383;SDS011;23258;49.718;11.082;2023-06-26T11:48:07;4.00;;;3.67;;
37383;SDS011;23258;49.718;11.082;2023-06-26T11:50:38;5.57;;;3.80;;
37383;SDS011;23258;49.718;11.082;2023-06-26T11:53:09;4.40;;;4.00;;
37383;SDS011;23258;49.718;11.082;2023-06-26T11:55:42;4.22;;;3.83;;
37383;SDS011;23258;49.718;11.082;2023-06-26T11:58:12;4.10;;;3.47;;
37383;SDS011;23258;49.718;11.082;2023-06-26T12:00:42;3.95;;;3.65;;
37383;SDS011;23258;49.718;11.082;2023-06-26T12:03:14;4.25;;;3.58;;
37383;SDS011;23258;49.718;11.082;2023-06-26T12:05:44;6.82;;;3.58;;
37383;SDS011;23258;49.718;11.082;2023-06-26T12:08:14;3.75;;;3.45;;
37383;SDS011;23258;49.718;11.082;2023-06-26T12:10:44;3.70;;;3.40;;
37383;SDS011;23258;49.718;11.082;2023-06-26T12:13:14;3.67;;;3.38;;
37383;SDS011;23258;49.718;11.082;2023-06-26T12:15:44;3.80;;;3.50;;
37383;SDS011;23258;49.718;11.082;2023-06-26T12:18:17;4.00;;;3.70;;
37383;SDS011;23258;49.718;11.082;2023-06-26T12:20:47;3.53;;;3.22;;
37383;SDS011;23258;49.718;11.082;2023-06-26T12:23:17;4.28;;;3.35;;
37383;SDS011;23258;49.718;11.082;2023-06-26T12:25:47;3.85;;;3.50;;
37383;SDS011;23258;49.718;11.082;2023-06-26T12:28:18;3.80;;;3.35;;
37383;SDS011;23258;49.718;11.082;2023-06-26T12:33:35;3.95;;;3.55;;
37383;SDS011;23258;49.718;11.082;2023-06-26T12:36:09;3.70;;;3.25;;
37383;SDS011;23258;49.718;11.082;2023-06-26T12:38:41;3.70;;;3.40;;
37383;SDS011;23258;49.718;11.082;2023-06-26T12:41:14;3.08;;;2.88;;
37383;SDS011;23258;49.718;11.082;2023-06-26T12:43:44;3.90;;;3.55;;
37383;SDS011;23258;49.718;11.082;2023-06-26T12:46:13;3.90;;;3.50;;
37383;SDS011;23258;49.718;11.082;2023-06-26T12:48:46;3.42;;;3.17;;
37383;SDS011;23258;49.718;11.082;2023-06-26T12:51:18;4.07;;;3.63;;
37383;SDS011;23258;49.718;11.082;2023-06-26T12:53:53;3.95;;;3.58;;
37383;SDS011;23258;49.718;11.082;2023-06-26T12:56:23;3.55;;;3.25;;
37383;SDS011;23258;49.718;11.082;2023-06-26T12:58:53;3.88;;;3.58;;
37383;SDS011;23258;49.718;11.082;2023-06-26T13:01:22;3.92;;;3.53;;
37383;SDS011;23258;49.718;11.082;2023-06-26T13:03:56;4.10;;;3.70;;
37383;SDS011;23258;49.718;11.082;2023-06-26T13:06:26;4.22;;;3.58;;
37383;SDS011;23258;49.718;11.082;2023-06-26T13:08:55;4.47;;;3.83;;
37383;SDS011;23258;49.718;11.082;2023-06-26T13:11:25;5.20;;;3.80;;
37383;SDS011;23258;49.718;11.082;2023-06-26T13:13:56;3.67;;;3.35;;
37383;SDS011;23258;49.718;11.082;2023-06-26T13:16:36;4.05;;;3.75;;
37383;SDS011;23258;49.718;11.082;2023-06-26T13:19:08;4.75;;;4.20;;
37383;SDS011;23258;49.718;11.082;2023-06-26T13:21:38;3.78;;;3.47;;
37383;SDS011;23258;49.718;11.082;2023-06-26T13:24:08;4.13;;;3.83;;
37383;SDS011;23258;49.718;11.082;2023-06-26T13:26:38;3.95;;;3.40;;
37383;SDS011;23258;49.718;11.082;2023-06-26T13:29:08;5.03;;;3.72;;
37383;SDS011;23258;49.718;11.082;2023-06-26T13:31:38;4.50;;;4.10;;
37383;SDS011;23258;49.718;11.082;2023-06-26T13:34:13;4.03;;;3.65;;
37383;SDS011;23258;49.718;11.082;2023-06-26T13:36:48;4.32;;;3.92;;
37383;SDS011;23258;49.718;11.082;2023-06-26T13:39:18;4.43;;;3.92;;
37383;SDS011;23258;49.718;11.082;2023-06-26T13:41:48;7.43;;;3.72;;
37383;SDS011;23258;49.718;11.082;2023-06-26T13:44:18;4.53;;;4.13;;
37383;SDS011;23258;49.718;11.082;2023-06-26T13:47:04;4.20;;;3.83;;
37383;SDS011;23258;49.718;11.082;2023-06-26T13:49:38;4.60;;;4.20;;
37383;SDS011;23258;49.718;11.082;2023-06-26T13:52:08;5.13;;;3.90;;
37383;SDS011;23258;49.718;11.082;2023-06-26T13:54:38;4.75;;;4.22;;
37383;SDS011;23258;49.718;11.082;2023-06-26T13:57:08;4.57;;;4.18;;
37383;SDS011;23258;49.718;11.082;2023-06-26T13:59:38;4.50;;;4.10;;
37383;SDS011;23258;49.718;11.082;2023-06-26T14:02:10;10.07;;;4.03;;
37383;SDS011;23258;49.718;11.082;2023-06-26T14:04:43;7.60;;;4.18;;
37383;SDS011;23258;49.718;11.082;2023-06-26T14:07:13;4.55;;;4.05;;
37383;SDS011;23258;49.718;11.082;2023-06-26T14:09:43;4.53;;;3.90;;
37383;SDS011;23258;49.718;11.082;2023-06-26T14:12:12;4.18;;;3.88;;
37383;SDS011;23258;49.718;11.082;2023-06-26T14:14:42;4.15;;;3.78;;
37383;SDS011;23258;49.718;11.082;2023-06-26T14:17:12;4.68;;;4.30;;
37383;SDS011;23258;49.718;11.082;2023-06-26T14:19:45;4.55;;;4.15;;
37383;SDS011;23258;49.718;11.082;2023-06-26T14:22:15;4.45;;;4.05;;
37383;SDS011;23258;49.718;11.082;2023-06-26T14:24:44;5.68;;;3.92;;
37383;SDS011;23258;49.718;11.082;2023-06-26T14:27:14;4.40;;;4.07;;
37383;SDS011;23258;49.718;11.082;2023-06-26T14:29:44;4.50;;;3.88;;
37383;SDS011;23258;49.718;11.082;2023-06-26T14:32:14;4.50;;;4.10;;
37383;SDS011;23258;49.718;11.082;2023-06-26T14:34:46;4.68;;;3.97;;
37383;SDS011;23258;49.718;11.082;2023-06-26T14:37:16;6.45;;;4.50;;
37383;SDS011;23258;49.718;11.082;2023-06-26T14:39:45;4.18;;;3.80;;
37383;SDS011;23258;49.718;11.082;2023-06-26T14:42:15;4.57;;;4.25;;
37383;SDS011;23258;49.718;11.082;2023-06-26T14:44:45;5.43;;;4.80;;
37383;SDS011;23258;49.718;11.082;2023-06-26T14:47:17;4.72;;;4.40;;
37383;SDS011;23258;49.718;11.082;2023-06-26T14:49:50;4.68;;;4.30;;
37383;SDS011;23258;49.718;11.082;2023-06-26T14:52:19;4.10;;;3.80;;
37383;SDS011;23258;49.718;11.082;2023-06-26T14:54:49;4.40;;;4.05;;
37383;SDS011;23258;49.718;11.082;2023-06-26T14:57:19;5.53;;;4.32;;
37383;SDS011;23258;49.718;11.082;2023-06-26T14:59:48;4.25;;;3.85;;
37383;SDS011;23258;49.718;11.082;2023-06-26T15:02:18;4.90;;;4.35;;
37383;SDS011;23258;49.718;11.082;2023-06-26T15:04:50;4.78;;;4.35;;